Time;durP1;ratioP1;P1;durP2;ratioP2;P2;SDS_P1;SDS_P2;PMS_P1;PMS_P2;Temp;Humidity;BMP_temperature;BMP_pressure;BME280_temperature;BME280_humidity;BME280_pressure;Samples;Min_cycle;Max_cycle;Signal;HPM_P1;HPM_P2
2023/07/09 00:00:18;;;;;;;0.10;0.10;;;14.80;61.10;;;;;;5071919;28;20202;-57
2023/07/09 00:02:52;;;;;;;0.10;0.10;;;14.80;61.00;;;;;;5071423;28;20200;-53
2023/07/09 00:05:24;;;;;;;0.10;0.10;;;14.80;61.00;;;;;;5071530;28;20233;-54
2023/07/09 00:07:55;;;;;;;0.03;0.03;;;14.80;61.00;;;;;;5071457;28;20190;-54
2023/07/09 00:10:25;;;;;;;0.10;0.10;;;14.90;61.10;;;;;;5071479;28;20210;-54
2023/07/09 00:12:56;;;;;;;0.10;0.10;;;14.90;61.10;;;;;;5071273;28;20616;-53
2023/07/09 00:15:30;;;;;;;0.08;0.08;;;14.80;61.00;;;;;;5070941;28;20203;-52
2023/07/09 00:18:00;;;;;;;0.10;0.10;;;14.80;61.10;;;;;;5071954;28;20206;-52
2023/07/09 00:20:33;;;;;;;0.10;0.10;;;14.90;61.10;;;;;;5071995;28;20230;-53
2023/07/09 00:23:04;;;;;;;0.10;0.10;;;14.90;61.10;;;;;;5071338;28;20222;-51
2023/07/09 00:25:35;;;;;;;0.10;0.10;;;14.90;61.20;;;;;;5071432;28;20649;-56
2023/07/09 00:28:06;;;;;;;0.10;0.10;;;14.90;61.20;;;;;;5071528;28;20286;-53
2023/07/09 00:30:37;;;;;;;0.10;0.10;;;14.90;61.20;;;;;;5071523;28;20198;-54
2023/07/09 00:33:09;;;;;;;0.10;0.10;;;14.90;61.20;;;;;;5065542;28;21241;-53
2023/07/09 00:35:42;;;;;;;0.10;0.10;;;14.90;61.20;;;;;;5032517;28;20287;-55
2023/07/09 00:38:23;;;;;;;0.10;0.10;;;14.90;61.20;;;;;;5045955;28;20217;-54
2023/07/09 00:41:05;;;;;;;0.10;0.10;;;14.90;61.20;;;;;;5051062;28;20356;-55
2023/07/09 00:43:38;;;;;;;0.10;0.10;;;14.90;61.20;;;;;;5062948;28;20223;-55
2023/07/09 00:46:39;;;;;;;0.10;0.10;;;14.90;61.10;;;;;;5071196;28;20226;-53
2023/07/09 00:49:17;;;;;;;0.10;0.10;;;14.90;61.10;;;;;;5031206;28;20205;-57
2023/07/09 00:51:50;;;;;;;0.10;0.10;;;14.90;61.10;;;;;;5031158;28;20606;-55
2023/07/09 00:54:30;;;;;;;0.10;0.10;;;15.00;61.20;;;;;;5030586;28;20243;-56
2023/07/09 00:57:04;;;;;;;0.15;0.15;;;14.90;61.10;;;;;;5030895;28;20196;-55
2023/07/09 00:59:35;;;;;;;0.10;0.10;;;14.90;61.20;;;;;;5030876;28;20196;-49
2023/07/09 01:02:06;;;;;;;0.10;0.10;;;14.90;61.20;;;;;;5031079;28;20200;-52
2023/07/09 01:04:39;;;;;;;0.10;0.10;;;14.90;61.20;;;;;;5031133;28;20224;-49
2023/07/09 01:07:11;;;;;;;0.10;0.10;;;14.90;61.30;;;;;;5031357;28;20559;-53
2023/07/09 01:09:42;;;;;;;0.10;0.10;;;14.90;61.30;;;;;;5031225;28;20205;-52
2023/07/09 01:12:14;;;;;;;0.10;0.10;;;14.90;61.20;;;;;;5032291;28;20586;-54
2023/07/09 01:14:48;;;;;;;0.10;0.10;;;14.90;61.20;;;;;;5053875;28;20215;-54
2023/07/09 01:17:18;;;;;;;0.10;0.10;;;15.00;61.30;;;;;;5051131;28;20214;-53
2023/07/09 01:19:53;;;;;;;0.10;0.10;;;15.00;61.30;;;;;;5052361;28;20203;-51
2023/07/09 01:22:27;;;;;;;0.10;0.10;;;15.00;61.30;;;;;;5055162;28;20232;-49
2023/07/09 01:25:01;;;;;;;0.10;0.10;;;15.00;61.30;;;;;;5054361;28;20195;-54
2023/07/09 01:27:34;;;;;;;0.10;0.10;;;15.00;61.30;;;;;;5034747;28;20263;-52
2023/07/09 01:30:09;;;;;;;0.10;0.10;;;15.00;61.30;;;;;;5034521;28;20276;-53
2023/07/09 01:32:45;;;;;;;0.10;0.10;;;15.00;61.30;;;;;;5034382;28;20663;-52
2023/07/09 01:35:17;;;;;;;0.10;0.10;;;15.00;61.20;;;;;;5054304;28;20211;-53
2023/07/09 01:37:50;;;;;;;0.10;0.10;;;15.00;61.20;;;;;;5054516;28;20211;-56
2023/07/09 01:40:23;;;;;;;0.10;0.10;;;15.00;61.20;;;;;;5054315;28;20195;-51
2023/07/09 01:42:55;;;;;;;0.10;0.10;;;15.00;61.30;;;;;;5060202;28;20226;-52
2023/07/09 01:45:25;;;;;;;0.10;0.10;;;15.00;61.30;;;;;;5074128;28;20245;-53
2023/07/09 01:47:56;;;;;;;0.10;0.10;;;15.00;61.30;;;;;;5074282;28;20604;-55
2023/07/09 01:50:27;;;;;;;0.10;0.10;;;15.00;61.30;;;;;;5074407;28;20643;-52
2023/07/09 01:53:01;;;;;;;0.10;0.10;;;15.00;61.30;;;;;;5073575;28;21057;-50
2023/07/09 01:55:32;;;;;;;0.10;0.10;;;15.00;61.40;;;;;;5073291;28;20195;-55
2023/07/09 01:58:06;;;;;;;0.10;0.10;;;15.00;61.30;;;;;;5073424;28;20435;-56
2023/07/09 02:00:37;;;;;;;0.10;0.10;;;15.00;61.30;;;;;;5073993;28;20285;-52
2023/07/09 02:03:08;;;;;;;0.10;0.10;;;15.00;61.40;;;;;;5073810;28;20219;-52
2023/07/09 02:05:39;;;;;;;0.10;0.10;;;15.10;61.30;;;;;;5073487;28;20199;-53
2023/07/09 02:08:12;;;;;;;0.10;0.10;;;15.00;61.30;;;;;;5074604;28;20202;-56
2023/07/09 02:10:45;;;;;;;0.10;0.10;;;15.00;61.30;;;;;;5073716;28;20206;-55
2023/07/09 02:13:16;;;;;;;0.10;0.10;;;15.00;61.30;;;;;;5073291;28;20582;-55
2023/07/09 02:15:47;;;;;;;0.10;0.10;;;15.10;61.30;;;;;;5073320;28;20195;-54
2023/07/09 02:18:18;;;;;;;0.10;0.10;;;15.10;61.40;;;;;;5073429;28;20208;-51
2023/07/09 02:20:50;;;;;;;0.10;0.10;;;15.10;61.40;;;;;;5073754;28;20194;-53
2023/07/09 02:23:22;;;;;;;0.00;0.00;;;15.10;61.40;;;;;;5073647;28;20218;-55
2023/07/09 02:25:53;;;;;;;0.10;0.10;;;15.10;61.50;;;;;;5073501;28;20194;-53
2023/07/09 02:28:23;;;;;;;0.10;0.10;;;15.10;61.50;;;;;;5073206;28;20206;-53
2023/07/09 02:30:54;;;;;;;0.10;0.10;;;15.10;61.50;;;;;;5073005;28;20191;-55
2023/07/09 02:33:25;;;;;;;0.10;0.10;;;15.10;61.50;;;;;;5073529;28;20261;-56
2023/07/09 02:35:56;;;;;;;0.10;0.10;;;15.10;61.50;;;;;;5069617;28;20203;-55
2023/07/09 02:38:28;;;;;;;0.10;0.10;;;15.10;61.50;;;;;;5034757;28;20557;-54
2023/07/09 02:40:59;;;;;;;0.10;0.10;;;15.10;61.40;;;;;;5032974;28;20219;-57
2023/07/09 02:43:29;;;;;;;0.10;0.10;;;15.10;61.40;;;;;;5058455;28;20226;-58
2023/07/09 02:46:00;;;;;;;0.10;0.10;;;15.10;61.40;;;;;;5033253;28;20200;-56
2023/07/09 02:48:31;;;;;;;0.10;0.10;;;15.10;61.40;;;;;;5033132;28;20258;-59
2023/07/09 02:51:01;;;;;;;0.10;0.10;;;15.10;61.40;;;;;;5033107;28;20672;-58
2023/07/09 02:53:34;;;;;;;0.10;0.10;;;15.10;61.30;;;;;;5032980;28;20216;-53
2023/07/09 02:56:04;;;;;;;0.10;0.10;;;15.10;61.40;;;;;;5033138;28;20203;-59
2023/07/09 02:58:35;;;;;;;0.08;0.08;;;15.20;61.40;;;;;;5032672;28;20199;-57
2023/07/09 03:01:05;;;;;;;0.05;0.05;;;15.20;61.50;;;;;;5032650;28;20199;-58
2023/07/09 03:03:36;;;;;;;0.10;0.10;;;15.10;61.40;;;;;;5032684;28;20220;-56
2023/07/09 03:06:07;;;;;;;0.10;0.10;;;15.20;61.40;;;;;;5047048;28;20555;-58
2023/07/09 03:08:40;;;;;;;0.10;0.10;;;15.10;61.40;;;;;;5052771;28;20648;-56
2023/07/09 03:11:14;;;;;;;0.10;0.10;;;15.20;61.50;;;;;;5052762;28;20214;-57
2023/07/09 03:13:45;;;;;;;0.10;0.10;;;15.20;61.50;;;;;;5065639;28;20241;-59
2023/07/09 03:16:18;;;;;;;0.17;0.17;;;15.20;61.50;;;;;;5072469;28;20558;-56
2023/07/09 03:18:49;;;;;;;0.10;0.10;;;15.20;62.30;;;;;;5039629;28;20243;-57
2023/07/09 03:21:20;;;;;;;0.10;0.10;;;15.20;61.50;;;;;;5032913;28;20192;-58
2023/07/09 03:23:52;;;;;;;0.15;0.15;;;15.20;61.50;;;;;;5041854;28;20246;-58
2023/07/09 03:26:23;;;;;;;0.10;0.10;;;15.20;61.50;;;;;;5052211;28;20252;-57
2023/07/09 03:28:54;;;;;;;0.10;0.10;;;15.20;61.50;;;;;;5051624;28;20235;-58
2023/07/09 03:31:28;;;;;;;0.10;0.10;;;15.20;61.40;;;;;;5051352;28;20198;-59
2023/07/09 03:33:59;;;;;;;0.10;0.10;;;15.20;61.40;;;;;;5052026;28;20219;-59
2023/07/09 03:36:29;;;;;;;0.08;0.08;;;15.20;61.40;;;;;;5051814;28;20683;-57
2023/07/09 03:39:02;;;;;;;0.20;0.20;;;15.20;61.40;;;;;;5051292;28;20195;-56
2023/07/09 03:41:33;;;;;;;0.10;0.10;;;15.20;61.40;;;;;;5051246;28;20199;-57
2023/07/09 03:44:03;;;;;;;0.10;0.10;;;15.20;61.40;;;;;;5066528;28;20215;-53
2023/07/09 03:46:34;;;;;;;0.10;0.10;;;15.20;61.50;;;;;;5070890;28;20736;-52
2023/07/09 03:49:05;;;;;;;0.10;0.10;;;15.20;61.50;;;;;;5072031;28;20662;-57
2023/07/09 03:51:35;;;;;;;0.10;0.10;;;15.20;61.50;;;;;;5071720;28;20195;-55
2023/07/09 03:54:08;;;;;;;0.10;0.10;;;15.20;61.50;;;;;;5071095;28;20222;-55
2023/07/09 03:56:39;;;;;;;0.08;0.08;;;15.20;61.50;;;;;;5071421;28;20281;-56
2023/07/09 03:59:09;;;;;;;0.10;0.10;;;15.20;61.40;;;;;;5071616;28;20209;-55
2023/07/09 04:01:45;;;;;;;0.10;0.10;;;15.20;61.40;;;;;;5071410;28;20191;-55
2023/07/09 04:04:20;;;;;;;0.10;0.10;;;15.20;61.40;;;;;;5070280;28;20254;-53
2023/07/09 04:06:50;;;;;;;0.10;0.10;;;15.20;61.40;;;;;;5069853;28;20221;-55
2023/07/09 04:09:23;;;;;;;0.10;0.10;;;15.20;61.30;;;;;;5069575;28;20284;-50
2023/07/09 04:11:53;;;;;;;0.10;0.10;;;15.20;61.40;;;;;;5069552;28;20195;-57
2023/07/09 04:14:24;;;;;;;0.10;0.10;;;15.20;61.30;;;;;;5069436;28;20218;-54
2023/07/09 04:16:55;;;;;;;0.10;0.10;;;15.20;61.30;;;;;;5071157;28;20285;-52
2023/07/09 04:19:25;;;;;;;0.10;0.10;;;15.20;61.30;;;;;;5071660;28;20569;-58
2023/07/09 04:21:56;;;;;;;0.10;0.10;;;15.20;61.40;;;;;;5071990;28;20203;-53
2023/07/09 04:24:29;;;;;;;0.10;0.10;;;15.20;61.40;;;;;;5071478;28;20642;-56
2023/07/09 04:27:02;;;;;;;0.10;0.10;;;15.20;61.40;;;;;;5071603;28;20303;-53
2023/07/09 04:29:33;;;;;;;0.10;0.10;;;15.20;61.50;;;;;;5052147;28;20549;-55
2023/07/09 04:32:04;;;;;;;0.10;0.10;;;15.30;61.50;;;;;;5031432;28;20645;-56
2023/07/09 04:34:35;;;;;;;0.17;0.17;;;15.20;61.40;;;;;;5035854;28;20451;-54
2023/07/09 04:37:06;;;;;;;0.10;0.10;;;15.30;61.50;;;;;;5051795;28;20199;-57
2023/07/09 04:39:38;;;;;;;0.10;0.10;;;15.30;61.50;;;;;;5051324;28;20282;-52
2023/07/09 04:42:13;;;;;;;0.10;0.10;;;15.30;61.90;;;;;;5051220;28;20260;-56
2023/07/09 04:44:43;;;;;;;0.10;0.10;;;15.30;62.00;;;;;;5070489;28;20217;-55
2023/07/09 04:47:14;;;;;;;0.05;0.05;;;15.30;62.00;;;;;;5070967;28;20246;-54
2023/07/09 04:49:45;;;;;;;0.10;0.10;;;15.30;61.90;;;;;;5043122;28;20648;-57
2023/07/09 04:52:16;;;;;;;0.10;0.10;;;15.30;62.00;;;;;;5051925;28;20206;-57
2023/07/09 04:54:50;;;;;;;0.10;0.10;;;15.30;62.00;;;;;;5051087;28;20224;-57
2023/07/09 04:57:20;;;;;;;0.10;0.10;;;15.30;62.00;;;;;;5054872;28;20365;-57
2023/07/09 04:59:51;;;;;;;0.10;0.10;;;15.30;62.00;;;;;;5053958;28;20266;-57
2023/07/09 05:02:22;;;;;;;0.10;0.10;;;15.40;62.10;;;;;;5054645;28;20265;-57
2023/07/09 05:04:52;;;;;;;0.10;0.10;;;15.30;62.00;;;;;;5053708;28;20715;-57
2023/07/09 05:07:23;;;;;;;0.08;0.08;;;15.40;62.10;;;;;;5054067;28;20687;-57
2023/07/09 05:09:55;;;;;;;0.10;0.10;;;15.40;62.00;;;;;;5053709;28;20200;-58
2023/07/09 05:12:30;;;;;;;0.10;0.10;;;15.40;62.00;;;;;;5056069;28;20196;-56
2023/07/09 05:15:00;;;;;;;0.10;0.10;;;15.40;62.10;;;;;;5074059;28;20202;-57
2023/07/09 05:17:31;;;;;;;0.10;0.10;;;15.40;62.00;;;;;;5056048;28;20272;-57
2023/07/09 05:20:02;;;;;;;0.10;0.10;;;15.40;62.00;;;;;;5054143;28;20195;-57
2023/07/09 05:22:33;;;;;;;0.10;0.10;;;15.40;61.90;;;;;;5054187;28;20459;-57
2023/07/09 05:25:05;;;;;;;0.10;0.10;;;15.40;61.90;;;;;;5053979;28;20458;-57
2023/07/09 05:27:36;;;;;;;0.10;0.10;;;15.40;61.90;;;;;;5053633;28;20223;-56
2023/07/09 05:30:07;;;;;;;0.10;0.10;;;15.40;61.90;;;;;;5052825;28;20196;-57
2023/07/09 05:32:38;;;;;;;0.10;0.10;;;15.40;61.80;;;;;;5053909;28;20274;-57
2023/07/09 05:35:10;;;;;;;0.10;0.10;;;15.40;61.90;;;;;;5053494;28;20199;-57
2023/07/09 05:37:41;;;;;;;0.10;0.10;;;15.40;61.90;;;;;;5054151;28;20191;-57
2023/07/09 05:40:14;;;;;;;0.08;0.08;;;15.40;61.80;;;;;;5052436;28;20195;-57
2023/07/09 05:42:44;;;;;;;0.10;0.10;;;15.40;61.90;;;;;;5056886;28;20195;-58
2023/07/09 05:45:15;;;;;;;0.10;0.10;;;15.40;61.90;;;;;;5053086;28;20196;-57
2023/07/09 05:47:46;;;;;;;0.03;0.03;;;15.40;61.90;;;;;;5053458;28;20227;-57
2023/07/09 05:50:16;;;;;;;0.10;0.10;;;15.40;61.90;;;;;;5053254;28;20261;-58
2023/07/09 05:52:50;;;;;;;0.10;0.10;;;15.40;61.90;;;;;;5053233;28;20199;-57
2023/07/09 05:55:23;;;;;;;0.10;0.10;;;15.40;62.00;;;;;;5054390;28;20199;-57
2023/07/09 05:57:53;;;;;;;0.00;0.00;;;15.40;62.00;;;;;;5052213;28;20556;-57
2023/07/09 06:00:24;;;;;;;0.10;0.10;;;15.40;62.00;;;;;;5053399;28;20199;-57
2023/07/09 06:02:55;;;;;;;0.10;0.10;;;15.40;62.00;;;;;;5052556;28;20212;-57
2023/07/09 06:05:25;;;;;;;0.10;0.10;;;15.40;62.00;;;;;;5052589;28;20198;-57
2023/07/09 06:07:56;;;;;;;0.10;0.10;;;15.40;61.90;;;;;;5053301;28;20230;-57
2023/07/09 06:10:29;;;;;;;0.15;0.15;;;15.40;62.00;;;;;;5053790;28;20406;-57
2023/07/09 06:13:00;;;;;;;0.10;0.10;;;15.40;62.10;;;;;;5059326;28;20225;-57
2023/07/09 06:15:31;;;;;;;0.10;0.10;;;15.40;62.10;;;;;;5073054;28;20686;-57
2023/07/09 06:18:01;;;;;;;0.10;0.10;;;15.40;62.10;;;;;;5055707;28;20187;-55
2023/07/09 06:20:32;;;;;;;0.03;0.03;;;15.40;62.10;;;;;;5052829;28;20198;-56
2023/07/09 06:23:03;;;;;;;0.10;0.10;;;15.50;62.30;;;;;;5041578;28;20227;-56
2023/07/09 06:25:35;;;;;;;0.05;0.05;;;15.50;62.40;;;;;;5032496;28;20203;-56
2023/07/09 06:28:06;;;;;;;0.10;0.10;;;15.50;62.40;;;;;;5049868;28;20223;-57
2023/07/09 06:30:38;;;;;;;0.10;0.10;;;15.50;62.40;;;;;;5052770;28;20191;-57
2023/07/09 06:33:09;;;;;;;0.10;0.10;;;15.50;62.30;;;;;;5034212;28;20583;-57
2023/07/09 06:35:40;;;;;;;0.10;0.10;;;15.50;62.30;;;;;;5031805;28;20192;-57
2023/07/09 06:38:10;;;;;;;0.08;0.08;;;15.50;62.40;;;;;;5050867;28;20195;-57
2023/07/09 06:40:43;;;;;;;0.10;0.10;;;15.50;62.20;;;;;;5052371;28;20214;-57
2023/07/09 06:43:14;;;;;;;0.10;0.10;;;15.50;62.20;;;;;;5046622;28;20299;-57
2023/07/09 06:45:53;;;;;;;0.10;0.10;;;15.50;62.10;;;;;;5052673;28;20202;-57
2023/07/09 06:48:24;;;;;;;0.10;0.10;;;15.50;62.10;;;;;;5051546;28;20219;-57
2023/07/09 06:50:56;;;;;;;0.10;0.10;;;15.50;62.00;;;;;;5052586;28;20655;-57
2023/07/09 06:53:27;;;;;;;0.10;0.10;;;15.50;61.90;;;;;;5051856;28;20248;-57
2023/07/09 06:56:00;;;;;;;0.10;0.10;;;15.50;61.90;;;;;;5052787;28;20191;-55
2023/07/09 06:58:33;;;;;;;0.10;0.10;;;15.40;61.90;;;;;;5052201;28;20239;-56
2023/07/09 07:01:05;;;;;;;0.10;0.10;;;15.50;62.00;;;;;;5051795;28;20192;-57
2023/07/09 07:03:36;;;;;;;0.10;0.10;;;15.50;62.00;;;;;;5051941;28;20218;-57
2023/07/09 07:06:07;;;;;;;0.10;0.10;;;15.50;62.00;;;;;;5061135;28;20202;-56
2023/07/09 07:08:38;;;;;;;0.10;0.10;;;15.50;62.00;;;;;;5052150;28;20231;-56
2023/07/09 07:11:10;;;;;;;0.10;0.10;;;15.50;62.20;;;;;;5051818;28;20226;-54
2023/07/09 07:13:42;;;;;;;0.10;0.10;;;15.50;62.30;;;;;;5063763;28;20283;-56
2023/07/09 07:16:14;;;;;;;0.10;0.10;;;15.40;62.30;;;;;;5062697;28;20650;-54
2023/07/09 07:18:45;;;;;;;0.10;0.10;;;15.50;62.40;;;;;;5031432;28;20192;-54
2023/07/09 07:21:15;;;;;;;0.10;0.10;;;15.50;62.40;;;;;;5031909;28;20565;-56
2023/07/09 07:23:49;;;;;;;0.10;0.10;;;15.50;62.40;;;;;;5032614;28;20212;-55
2023/07/09 07:26:21;;;;;;;0.10;0.10;;;15.50;62.40;;;;;;5043765;28;20192;-57
2023/07/09 07:28:52;;;;;;;0.00;0.00;;;15.50;62.30;;;;;;5031829;28;20769;-56
2023/07/09 07:31:23;;;;;;;0.10;0.10;;;15.50;62.20;;;;;;5032188;28;20283;-56
2023/07/09 07:33:54;;;;;;;0.10;0.10;;;15.50;62.20;;;;;;5030807;28;20696;-58
2023/07/09 07:36:25;;;;;;;0.10;0.10;;;15.50;62.10;;;;;;5032705;28;20192;-58
2023/07/09 07:38:56;;;;;;;0.10;0.10;;;15.50;62.10;;;;;;5050638;28;20199;-58
2023/07/09 07:41:28;;;;;;;0.10;0.10;;;15.50;62.10;;;;;;5051823;28;20207;-56
2023/07/09 07:43:59;;;;;;;0.10;0.10;;;15.50;62.10;;;;;;5054318;28;20211;-55
2023/07/09 07:46:32;;;;;;;0.10;0.10;;;15.50;62.10;;;;;;5051450;28;20198;-58
2023/07/09 07:49:02;;;;;;;0.03;0.03;;;15.50;62.10;;;;;;5030744;28;20271;-58
2023/07/09 07:51:33;;;;;;;0.00;0.00;;;15.50;62.10;;;;;;5031367;28;20199;-58
2023/07/09 07:54:04;;;;;;;0.08;0.08;;;15.50;62.00;;;;;;5051293;28;20551;-57
2023/07/09 07:56:36;;;;;;;0.10;0.10;;;15.50;61.90;;;;;;5051592;28;20202;-56
2023/07/09 07:59:07;;;;;;;0.10;0.10;;;15.50;61.90;;;;;;5051141;28;20195;-57
2023/07/09 08:01:38;;;;;;;0.10;0.10;;;15.50;61.90;;;;;;5051059;28;20210;-57
2023/07/09 08:04:09;;;;;;;0.10;0.10;;;15.50;61.80;;;;;;5050508;28;20302;-56
2023/07/09 08:06:39;;;;;;;0.10;0.10;;;15.50;61.90;;;;;;5050685;28;20196;-56
2023/07/09 08:09:10;;;;;;;0.10;0.10;;;15.40;61.80;;;;;;5051583;28;20222;-57
2023/07/09 08:11:42;;;;;;;0.10;0.10;;;15.40;61.80;;;;;;5051767;28;20207;-57
2023/07/09 08:14:14;;;;;;;0.10;0.10;;;15.40;61.70;;;;;;5068954;28;20222;-57
2023/07/09 08:16:44;;;;;;;0.10;0.10;;;15.40;61.70;;;;;;5072224;28;20217;-56
2023/07/09 08:19:15;;;;;;;0.10;0.10;;;15.40;61.80;;;;;;5071883;28;20203;-54
2023/07/09 08:21:46;;;;;;;0.10;0.10;;;15.40;62.00;;;;;;5071433;28;20220;-56
2023/07/09 08:24:16;;;;;;;0.10;0.10;;;15.40;62.00;;;;;;5072256;28;20218;-57
2023/07/09 08:26:49;;;;;;;0.10;0.10;;;15.40;62.00;;;;;;5071521;28;20198;-56
2023/07/09 08:29:20;;;;;;;0.08;0.08;;;15.40;62.00;;;;;;5074917;28;20233;-57
2023/07/09 08:31:50;;;;;;;0.10;0.10;;;15.40;61.90;;;;;;5055502;28;20618;-56
2023/07/09 08:34:21;;;;;;;0.08;0.08;;;15.40;61.90;;;;;;5057717;28;20219;-57
2023/07/09 08:36:52;;;;;;;0.10;0.10;;;15.40;61.80;;;;;;5057957;28;20199;-55
2023/07/09 08:39:22;;;;;;;0.10;0.10;;;15.40;61.80;;;;;;5057998;28;20202;-57
2023/07/09 08:42:00;;;;;;;0.10;0.10;;;15.40;61.80;;;;;;5057811;28;20203;-57
2023/07/09 08:44:46;;;;;;;0.10;0.10;;;15.40;61.80;;;;;;5077068;28;20293;-57
2023/07/09 08:47:27;;;;;;;0.00;0.00;;;15.40;61.80;;;;;;5054421;28;20188;-57
2023/07/09 08:50:01;;;;;;;0.00;0.00;;;15.40;61.80;;;;;;5037340;28;20703;-56
2023/07/09 08:52:37;;;;;;;0.10;0.10;;;15.40;61.70;;;;;;5037659;28;20210;-57
2023/07/09 08:55:12;;;;;;;0.00;0.00;;;15.40;61.80;;;;;;5037531;28;20195;-57
2023/07/09 08:57:48;;;;;;;0.10;0.10;;;15.40;61.80;;;;;;5037749;28;20203;-57
2023/07/09 09:00:20;;;;;;;0.10;0.10;;;15.40;61.80;;;;;;5036942;28;20572;-57
2023/07/09 09:02:54;;;;;;;0.10;0.10;;;15.30;61.80;;;;;;5036923;28;20660;-55
2023/07/09 09:05:26;;;;;;;0.10;0.10;;;15.40;61.90;;;;;;5037409;28;20206;-57
2023/07/09 09:08:02;;;;;;;0.00;0.00;;;15.40;61.90;;;;;;5037645;28;20590;-57
2023/07/09 09:10:38;;;;;;;0.10;0.10;;;15.30;61.80;;;;;;5038030;28;20243;-57
2023/07/09 09:13:13;;;;;;;0.00;0.00;;;15.40;61.80;;;;;;5051707;28;20244;-57
2023/07/09 09:15:46;;;;;;;0.10;0.10;;;15.40;61.80;;;;;;5056074;28;20191;-57
2023/07/09 09:18:25;;;;;;;0.10;0.10;;;15.40;61.70;;;;;;5056921;28;20223;-57
2023/07/09 09:21:06;;;;;;;0.10;0.10;;;15.30;61.70;;;;;;5057818;28;20199;-57
2023/07/09 09:23:53;;;;;;;0.10;0.10;;;15.30;61.70;;;;;;5057449;28;20683;-57
2023/07/09 09:26:31;;;;;;;0.10;0.10;;;15.30;61.70;;;;;;5057621;28;20230;-58
2023/07/09 09:29:12;;;;;;;0.10;0.10;;;15.30;61.60;;;;;;5057349;28;20596;-56
2023/07/09 09:31:45;;;;;;;0.08;0.08;;;15.30;61.70;;;;;;5057068;28;20526;-57
2023/07/09 09:34:23;;;;;;;0.10;0.10;;;15.30;61.70;;;;;;5056880;28;20223;-57
2023/07/09 09:36:54;;;;;;;0.10;0.10;;;15.30;61.70;;;;;;5056805;28;20199;-57
2023/07/09 09:39:26;;;;;;;0.10;0.10;;;15.30;61.70;;;;;;5057493;28;20199;-57
2023/07/09 09:41:59;;;;;;;0.00;0.00;;;15.30;61.70;;;;;;5052398;28;20226;-60
2023/07/09 09:44:33;;;;;;;0.10;0.10;;;15.20;61.80;;;;;;5073309;28;20227;-58
2023/07/09 09:47:04;;;;;;;0.10;0.10;;;15.30;62.10;;;;;;5073432;28;20244;-55
2023/07/09 09:49:42;;;;;;;0.13;0.13;;;15.20;62.00;;;;;;5073604;28;20222;-56
2023/07/09 09:52:17;;;;;;;0.10;0.10;;;15.20;62.10;;;;;;5071509;28;20289;-56
2023/07/09 09:54:53;;;;;;;0.10;0.10;;;15.20;61.90;;;;;;5042996;28;20211;-53
2023/07/09 09:57:26;;;;;;;0.10;0.10;;;15.30;62.00;;;;;;5041464;28;20640;-56
2023/07/09 10:00:01;;;;;;;0.10;0.10;;;15.20;61.90;;;;;;5033961;28;20205;-53
2023/07/09 10:02:31;;;;;;;0.10;0.10;;;15.20;61.90;;;;;;5037296;28;20286;-53
2023/07/09 10:05:03;;;;;;;0.10;0.10;;;15.20;61.80;;;;;;5052148;28;20192;-55
2023/07/09 10:07:38;;;;;;;0.00;0.00;;;15.20;61.90;;;;;;5050880;28;20664;-53
2023/07/09 10:10:19;;;;;;;0.10;0.10;;;15.20;61.90;;;;;;5033753;28;20299;-57
2023/07/09 10:12:54;;;;;;;0.00;0.00;;;15.20;61.90;;;;;;5051083;28;20256;-55
2023/07/09 10:15:35;;;;;;;0.10;0.10;;;15.20;61.90;;;;;;5073014;28;20280;-50
2023/07/09 10:18:17;;;;;;;0.10;0.10;;;15.20;61.80;;;;;;5058754;28;20198;-54
2023/07/09 10:20:51;;;;;;;0.10;0.10;;;15.20;61.90;;;;;;5052819;28;20188;-52
2023/07/09 10:23:29;;;;;;;0.10;0.10;;;15.20;61.90;;;;;;5052594;28;20622;-51
2023/07/09 10:26:08;;;;;;;0.10;0.10;;;15.20;61.90;;;;;;5072844;28;20205;-50
2023/07/09 10:29:09;;;;;;;0.10;0.10;;;15.20;61.80;;;;;;5054262;28;20202;-52
2023/07/09 10:31:50;;;;;;;0.10;0.10;;;15.20;61.80;;;;;;5047902;28;20206;-55
2023/07/09 10:34:30;;;;;;;0.10;0.10;;;15.20;61.80;;;;;;5044049;28;20212;-56
2023/07/09 10:37:27;;;;;;;0.10;0.10;;;15.20;61.80;;;;;;5052107;28;20572;-55
2023/07/09 10:40:00;;;;;;;0.10;0.10;;;15.10;61.80;;;;;;5049333;28;20202;-58
2023/07/09 10:42:37;;;;;;;0.10;0.10;;;15.10;61.70;;;;;;5043734;28;20264;-58
2023/07/09 10:45:13;;;;;;;0.10;0.10;;;15.10;61.80;;;;;;5072470;28;20187;-54
2023/07/09 10:47:50;;;;;;;0.10;0.10;;;15.10;61.90;;;;;;5062004;28;20195;-52
2023/07/09 10:50:37;;;;;;;0.10;0.10;;;15.10;61.90;;;;;;5052243;28;20309;-55
2023/07/09 10:53:14;;;;;;;0.10;0.10;;;15.10;61.90;;;;;;5050544;28;20220;-55
2023/07/09 10:55:55;;;;;;;0.10;0.10;;;15.10;61.80;;;;;;5052837;28;20245;-54
2023/07/09 10:58:37;;;;;;;0.10;0.10;;;15.10;61.80;;;;;;5051273;28;20199;-56
2023/07/09 11:01:08;;;;;;;0.10;0.10;;;15.10;61.90;;;;;;5052645;28;20253;-52
2023/07/09 11:03:45;;;;;;;0.10;0.10;;;15.10;61.80;;;;;;5051451;28;20744;-50
2023/07/09 11:06:23;;;;;;;0.10;0.10;;;15.10;61.80;;;;;;5052195;28;20207;-55
2023/07/09 11:08:57;;;;;;;0.10;0.10;;;15.10;61.80;;;;;;5052007;28;20242;-57
2023/07/09 11:11:35;;;;;;;0.10;0.10;;;15.10;61.80;;;;;;5051086;28;20763;-58
2023/07/09 11:14:12;;;;;;;0.10;0.10;;;15.10;61.80;;;;;;5052854;28;20215;-53
2023/07/09 11:16:45;;;;;;;0.10;0.10;;;15.10;61.80;;;;;;5051498;28;20191;-51
2023/07/09 11:19:22;;;;;;;0.00;0.00;;;15.10;61.90;;;;;;5056435;28;20191;-50
2023/07/09 11:22:07;;;;;;;0.10;0.10;;;15.00;61.80;;;;;;5051574;28;20248;-55
2023/07/09 11:24:48;;;;;;;0.10;0.10;;;15.00;62.50;;;;;;5052364;28;20219;-55
2023/07/09 11:27:23;;;;;;;0.10;0.10;;;15.10;61.80;;;;;;5051991;28;20286;-53
2023/07/09 11:30:01;;;;;;;0.10;0.10;;;15.00;61.80;;;;;;5045780;28;20250;-53
2023/07/09 11:32:32;;;;;;;0.10;0.10;;;15.00;61.80;;;;;;5041427;28;20191;-55
2023/07/09 11:35:25;;;;;;;0.10;0.10;;;15.00;61.80;;;;;;5041365;28;20382;-53
2023/07/09 11:37:58;;;;;;;0.10;0.10;;;15.00;61.80;;;;;;5043943;28;20279;-49
2023/07/09 11:40:30;;;;;;;0.10;0.10;;;15.00;61.70;;;;;;5031605;28;20200;-52
2023/07/09 11:43:01;;;;;;;0.10;0.10;;;15.00;61.70;;;;;;5036361;28;20560;-55
2023/07/09 11:45:35;;;;;;;0.10;0.10;;;15.00;61.70;;;;;;5042856;28;20196;-57
2023/07/09 11:48:22;;;;;;;0.10;0.10;;;15.00;61.70;;;;;;5046448;28;20191;-56
2023/07/09 11:50:56;;;;;;;0.10;0.10;;;15.00;61.70;;;;;;5043673;28;20288;-57
2023/07/09 11:53:36;;;;;;;0.10;0.10;;;15.00;61.70;;;;;;5040685;28;20211;-52
2023/07/09 11:56:07;;;;;;;0.10;0.10;;;15.00;61.70;;;;;;5042654;28;20203;-55
2023/07/09 11:58:37;;;;;;;0.10;0.10;;;15.00;61.70;;;;;;5041344;28;20192;-52
2023/07/09 12:01:19;;;;;;;0.05;0.05;;;15.00;61.80;;;;;;5040441;28;20195;-53
2023/07/09 12:03:50;;;;;;;0.10;0.10;;;15.00;61.80;;;;;;5039022;28;20699;-55
2023/07/09 12:06:26;;;;;;;0.10;0.10;;;15.00;61.80;;;;;;5039185;28;20641;-54
2023/07/09 12:08:58;;;;;;;0.10;0.10;;;14.90;61.70;;;;;;5041768;28;20192;-56
2023/07/09 12:11:29;;;;;;;0.10;0.10;;;14.90;61.80;;;;;;5041151;28;20215;-56
2023/07/09 12:14:05;;;;;;;0.10;0.10;;;14.90;61.70;;;;;;5043256;28;20223;-57
2023/07/09 12:16:41;;;;;;;0.10;0.10;;;14.90;61.70;;;;;;5046966;28;20603;-57
2023/07/09 12:19:13;;;;;;;0.10;0.10;;;14.90;61.70;;;;;;5043625;28;20187;-55
2023/07/09 12:21:47;;;;;;;0.10;0.10;;;14.90;62.50;;;;;;5041982;28;20194;-51
2023/07/09 12:24:22;;;;;;;0.10;0.10;;;14.90;61.70;;;;;;5040974;28;20226;-50
2023/07/09 12:26:54;;;;;;;0.10;0.10;;;14.90;61.70;;;;;;5040276;28;20621;-49
2023/07/09 12:29:29;;;;;;;0.10;0.10;;;14.90;61.60;;;;;;5041664;28;20211;-51
2023/07/09 12:32:00;;;;;;;0.10;0.10;;;14.90;61.60;;;;;;5030914;28;20184;-52
2023/07/09 12:34:34;;;;;;;0.10;0.10;;;14.90;61.60;;;;;;5031246;28;20219;-56
2023/07/09 12:37:07;;;;;;;0.10;0.10;;;14.90;61.60;;;;;;5030807;28;20192;-52
2023/07/09 12:39:40;;;;;;;0.10;0.10;;;14.90;61.60;;;;;;5030955;28;20296;-54
2023/07/09 12:42:19;;;;;;;0.10;0.10;;;14.90;61.60;;;;;;5033603;28;20191;-54
2023/07/09 12:44:50;;;;;;;0.10;0.10;;;14.90;61.60;;;;;;5042442;28;20556;-55
2023/07/09 12:47:22;;;;;;;0.10;0.10;;;14.90;61.60;;;;;;5041555;28;20197;-58
2023/07/09 12:49:53;;;;;;;0.10;0.10;;;14.90;61.70;;;;;;5040212;28;20211;-52
2023/07/09 12:52:26;;;;;;;0.10;0.10;;;14.90;61.60;;;;;;5040187;28;20656;-55
2023/07/09 12:55:00;;;;;;;0.10;0.10;;;14.90;61.60;;;;;;5030942;28;20208;-58
2023/07/09 12:57:33;;;;;;;0.10;0.10;;;14.90;61.60;;;;;;5030931;28;20192;-54
2023/07/09 13:00:08;;;;;;;0.10;0.10;;;14.90;61.60;;;;;;5030733;28;20189;-54
2023/07/09 13:02:42;;;;;;;0.10;0.10;;;14.90;61.60;;;;;;5030686;28;20279;-55
2023/07/09 13:05:22;;;;;;;0.10;0.10;;;14.90;61.60;;;;;;5031387;28;20200;-54
2023/07/09 13:07:57;;;;;;;0.10;0.10;;;14.90;61.60;;;;;;5031144;28;20652;-55
2023/07/09 13:10:30;;;;;;;0.10;0.10;;;14.90;61.60;;;;;;5030840;28;20231;-51
2023/07/09 13:13:06;;;;;;;0.10;0.10;;;14.90;61.50;;;;;;5044491;28;20225;-54
2023/07/09 13:15:44;;;;;;;0.10;0.10;;;14.90;61.50;;;;;;5071619;28;20615;-53
2023/07/09 13:18:17;;;;;;;0.10;0.10;;;14.80;61.50;;;;;;5055924;28;20200;-56